»·PEaware :: N907WA KSFO-KDEN

N907WA :: KSFO-KDEN

FLIGHT INFORMATION

Flight Status: Arrived
Operator: Privately registered:
United States
More flights under this callsign
Pilot: Nicolas D. (4344)
Aircraft: BOEING 737-800
(B738)
More flights by this aircraft type
Origin: KSFO San Francisco Intl
United States
Destination: KDEN Denver Intl
United States
More flights between these airports :: More routes between these airports
Route: +TRUKN2 SYRAH Q128 JSICA MLF J28 HVE WOLLF CREDE3
File this flight plan on PilotEdge
Remarks: PBN / A1B1C1D1S1S2 NAV / RNVD1E2A1 EET / KZLC0039 KZDV0122
Altitude:
(Current/Filed)
370ft
Speed:
(Current/Filed)
457kts
Departed: 14-May-18 01:14 PM
Arrived: 14-May-18 03:20 PM
Distance/Time
Traveled:
838nm/2:06
Distance/Time
To Go:
Arrived

Flight Plot

Page will automatically refresh every two minutes.


Map Options




Map Legend


Flown Route
Filed Route
Departure Airport
Arrival Airport
Navaid (VOR, NDB)
Fix

Horizontal Profiles

Position Reports

Time Latitude Longitude Heading Altitude Ground
Speed
14-May-18 12:37 37.612443 -122.383243 337 20ft 0kts
14-May-18 12:38 37.612443 -122.383243 337 20ft 0kts
14-May-18 12:39 37.612443 -122.383243 337 20ft 0kts
14-May-18 12:40 37.612443 -122.383243 337 20ft 0kts
14-May-18 12:41 37.612443 -122.383243 337 20ft 0kts
14-May-18 12:42 37.612443 -122.383243 337 20ft 0kts
14-May-18 12:43 37.612443 -122.383243 337 20ft 0kts
14-May-18 12:44 37.612443 -122.383243 337 20ft 0kts
14-May-18 12:45 37.612443 -122.383243 337 20ft 0kts
14-May-18 12:46 37.612443 -122.383243 337 20ft 0kts
14-May-18 12:47 37.612443 -122.383243 337 20ft 0kts
14-May-18 12:48 37.612443 -122.383243 337 20ft 0kts
14-May-18 12:49 37.612443 -122.383243 337 20ft 0kts
14-May-18 12:50 37.612443 -122.383243 337 20ft 0kts
14-May-18 12:51 37.612443 -122.383243 337 20ft 0kts
14-May-18 12:52 37.612443 -122.383243 337 20ft 0kts
14-May-18 12:53 37.612443 -122.383243 337 20ft 0kts
14-May-18 12:54 37.612443 -122.383243 337 20ft 0kts
14-May-18 12:55 37.612443 -122.383243 337 20ft 0kts
14-May-18 12:56 37.612443 -122.383243 337 20ft 0kts
14-May-18 12:57 37.612443 -122.383243 337 20ft 0kts
14-May-18 12:58 37.612443 -122.383243 337 20ft 0kts
14-May-18 12:59 37.612443 -122.383243 337 20ft 0kts
14-May-18 13:00 37.612443 -122.383243 337 20ft 0kts
14-May-18 13:01 37.612309 -122.383173 337 20ft 0kts
14-May-18 13:02 37.612216 -122.382612 241 20ft 1kts
14-May-18 13:03 37.612319 -122.382482 206 20ft 0kts
14-May-18 13:04 37.612319 -122.382482 206 20ft 0kts
14-May-18 13:05 37.612319 -122.382482 206 20ft 0kts
14-May-18 13:06 37.612319 -122.382482 206 20ft 0kts
14-May-18 13:07 37.612264 -122.382517 206 20ft 2kts
14-May-18 13:08 37.610674 -122.383584 208 20ft 6kts
14-May-18 13:09 37.609592 -122.384483 211 20ft 16kts
14-May-18 13:10 37.608839 -122.384559 129 20ft 7kts
14-May-18 13:11 37.608532 -122.383884 114 20ft 0kts
14-May-18 13:12 37.608532 -122.383882 114 20ft 0kts
14-May-18 13:13 37.608823 -122.382312 24 20ft 22kts
14-May-18 13:14 37.640039 -122.358048 47 1605ft 179kts
14-May-18 13:15 37.674743 -122.296945 53 3913ft 246kts
14-May-18 13:16 37.717181 -122.219603 62 7042ft 279kts
14-May-18 13:17 37.759226 -122.134345 56 10488ft 290kts
14-May-18 13:18 37.807526 -122.040905 56 12299ft 351kts
14-May-18 13:19 37.842367 -121.922036 75 15059ft 370kts
14-May-18 13:20 37.865602 -121.793056 75 17641ft 383kts
14-May-18 13:21 37.889915 -121.659184 75 19928ft 397kts
14-May-18 13:22 37.915510 -121.520133 74 21960ft 411kts
14-May-18 13:23 37.942007 -121.376875 75 23713ft 425kts
14-May-18 13:24 37.968448 -121.229772 75 25238ft 438kts
14-May-18 13:25 37.995400 -121.076254 76 26612ft 452kts
14-May-18 13:26 38.019396 -120.919486 75 28095ft 457kts
14-May-18 13:27 38.043792 -120.758466 75 29135ft 470kts
14-May-18 13:28 38.068828 -120.594325 75 30302ft 476kts
14-May-18 13:29 38.093989 -120.429108 75 31571ft 478kts
14-May-18 13:30 38.118884 -120.262636 75 32840ft 479kts
14-May-18 13:31 38.143388 -120.096772 75 34078ft 478kts
14-May-18 13:32 38.167653 -119.930764 75 35193ft 479kts
14-May-18 13:33 38.191706 -119.764448 76 36321ft 477kts
14-May-18 13:34 38.215420 -119.598739 76 37106ft 479kts
14-May-18 13:35 38.239022 -119.432032 76 37109ft 475kts
14-May-18 13:36 38.262199 -119.266601 76 37115ft 476kts
14-May-18 13:37 38.285179 -119.100811 76 37119ft 477kts
14-May-18 13:38 38.308065 -118.933879 76 37122ft 479kts
14-May-18 13:39 38.330745 -118.766633 76 37117ft 481kts
14-May-18 13:40 38.353307 -118.598382 77 37105ft 484kts
14-May-18 13:41 38.375864 -118.428310 77 37103ft 487kts
14-May-18 13:42 38.398205 -118.257763 77 37119ft 490kts
14-May-18 13:43 38.420374 -118.086594 78 37130ft 490kts
14-May-18 13:44 38.427552 -118.030733 78 37116ft 491kts
14-May-18 13:45 38.448493 -117.866536 78 37100ft 492kts
14-May-18 13:46 38.470254 -117.693921 78 37105ft 491kts
14-May-18 13:47 38.491853 -117.522409 78 37109ft 490kts
14-May-18 13:48 38.512744 -117.350940 79 37112ft 488kts
14-May-18 13:49 38.519976 -117.226057 89 37115ft 490kts
14-May-18 13:50 38.517718 -117.131904 90 37115ft 490kts
14-May-18 13:51 38.517396 -117.119113 90 37115ft 490kts
14-May-18 13:52 38.513075 -116.945267 91 37119ft 491kts
14-May-18 13:53 38.509015 -116.770860 91 37121ft 493kts
14-May-18 13:54 38.504973 -116.595064 91 37122ft 495kts
14-May-18 13:55 38.500496 -116.419311 92 37122ft 497kts
14-May-18 13:56 38.495689 -116.242476 92 37123ft 500kts
14-May-18 13:57 38.490549 -116.064534 92 37124ft 501kts
14-May-18 13:58 38.485133 -115.886573 93 37132ft 503kts
14-May-18 13:59 38.479440 -115.708531 93 37135ft 502kts
14-May-18 14:00 38.473483 -115.530511 93 37138ft 500kts
14-May-18 14:01 38.467314 -115.353524 93 37133ft 499kts
14-May-18 14:02 38.460870 -115.176443 93 37126ft 498kts
14-May-18 14:03 38.454153 -115.000116 94 37114ft 499kts
14-May-18 14:04 38.447163 -114.823388 94 37124ft 499kts
14-May-18 14:05 38.439883 -114.645962 94 37126ft 501kts
14-May-18 14:06 38.432358 -114.468497 94 37125ft 503kts
14-May-18 14:07 38.424491 -114.290212 95 37124ft 505kts
14-May-18 14:08 38.416312 -114.110669 95 37108ft 506kts
14-May-18 14:09 38.407870 -113.931582 95 37107ft 507kts
14-May-18 14:10 38.399122 -113.751737 95 37107ft 507kts
14-May-18 14:11 38.390143 -113.572734 95 37109ft 506kts
14-May-18 14:12 38.381061 -113.394311 95 37108ft 505kts
14-May-18 14:13 38.371652 -113.215785 96 37115ft 504kts
14-May-18 14:14 38.361749 -113.038027 96 37119ft 503kts
14-May-18 14:15 38.364359 -112.859523 88 37120ft 505kts
14-May-18 14:16 38.370560 -112.680115 89 37123ft 506kts
14-May-18 14:17 38.376297 -112.500820 89 37129ft 507kts
14-May-18 14:18 38.381868 -112.320526 90 37128ft 509kts
14-May-18 14:19 38.386916 -112.140432 90 37131ft 510kts
14-May-18 14:20 38.391658 -111.960060 90 37134ft 510kts
14-May-18 14:21 38.396089 -111.778910 90 37126ft 510kts
14-May-18 14:22 38.400264 -111.598392 90 37114ft 510kts
14-May-18 14:23 38.404124 -111.418059 90 37099ft 509kts
14-May-18 14:24 38.407719 -111.237194 91 37083ft 509kts
14-May-18 14:25 38.411230 -111.057132 90 37063ft 508kts
14-May-18 14:26 38.414265 -110.876526 91 37046ft 509kts
14-May-18 14:27 38.416882 -110.696166 91 37040ft 510kts
14-May-18 14:28 38.420904 -110.515446 90 37041ft 511kts
14-May-18 14:29 38.424572 -110.333669 91 37044ft 512kts
14-May-18 14:30 38.428456 -110.152277 91 37045ft 512kts
14-May-18 14:31 38.432100 -109.970924 91 37038ft 512kts
14-May-18 14:32 38.435304 -109.789304 91 37035ft 513kts
14-May-18 14:33 38.438203 -109.606991 91 37034ft 513kts
14-May-18 14:34 38.440792 -109.424894 91 37048ft 512kts
14-May-18 14:35 38.443090 -109.243626 91 37073ft 512kts
14-May-18 14:36 38.445108 -109.062450 91 37092ft 512kts
14-May-18 14:37 38.446856 -108.880430 92 37109ft 511kts
14-May-18 14:38 38.448318 -108.698918 92 37122ft 512kts
14-May-18 14:39 38.449502 -108.517245 92 37127ft 513kts
14-May-18 14:40 38.450409 -108.335010 92 37122ft 513kts
14-May-18 14:41 38.451034 -108.153042 92 37112ft 513kts
14-May-18 14:42 38.451546 -107.971178 92 37089ft 513kts
14-May-18 14:43 38.451657 -107.788420 93 37086ft 514kts
14-May-18 14:44 38.456692 -107.606695 79 37103ft 517kts
14-May-18 14:45 38.517695 -107.440825 57 37139ft 517kts
14-May-18 14:46 38.590713 -107.282801 58 37124ft 518kts
14-May-18 14:47 38.662325 -107.123546 59 37156ft 517kts
14-May-18 14:48 38.733833 -106.963269 59 37167ft 517kts
14-May-18 14:49 38.804429 -106.802987 59 37205ft 517kts
14-May-18 14:50 38.875093 -106.642346 58 36986ft 517kts
14-May-18 14:51 38.948775 -106.484419 58 34227ft 516kts
14-May-18 14:52 39.022170 -106.324822 59 31380ft 513kts
14-May-18 14:53 39.092924 -106.168629 59 29298ft 495kts
14-May-18 14:54 39.149033 -106.042451 60 27609ft 479kts
14-May-18 14:55 39.213960 -105.895971 61 25702ft 463kts
14-May-18 14:56 39.276464 -105.753193 61 23792ft 450kts
14-May-18 14:57 39.336668 -105.615684 61 22106ft 435kts
14-May-18 14:58 39.393135 -105.486410 61 21063ft 388kts
14-May-18 14:59 39.461023 -105.356688 55 19615ft 364kts
14-May-18 15:00 39.517062 -105.250261 56 17963ft 352kts
14-May-18 15:01 39.561669 -105.165150 55 16683ft 341kts
14-May-18 15:02 39.615542 -105.062100 55 15483ft 349kts
14-May-18 15:03 39.668983 -104.959294 56 14321ft 339kts
14-May-18 15:04 39.722931 -104.861826 37 13179ft 327kts
14-May-18 15:05 39.808881 -104.839384 0 12172ft 313kts
14-May-18 15:06 39.892305 -104.839275 358 11319ft 281kts
14-May-18 15:07 39.965955 -104.839515 358 10989ft 251kts
14-May-18 15:08 40.035668 -104.836133 1 10421ft 247kts
14-May-18 15:09 40.104389 -104.833012 1 9196ft 246kts
14-May-18 15:10 40.172283 -104.830668 1 8197ft 240kts
14-May-18 15:11 40.238091 -104.826650 21 7953ft 238kts
14-May-18 15:12 40.235322 -104.759603 145 8071ft 232kts
14-May-18 15:13 40.186492 -104.721666 148 8042ft 192kts
14-May-18 15:14 40.140057 -104.686391 157 7975ft 193kts
14-May-18 15:15 40.086087 -104.684530 179 7991ft 194kts
14-May-18 15:16 40.032591 -104.685233 180 7914ft 188kts
14-May-18 15:17 39.981378 -104.685832 180 7059ft 171kts
14-May-18 15:18 39.935381 -104.686366 180 6193ft 162kts
14-May-18 15:19 39.890819 -104.686898 178 5439ft 146kts
14-May-18 15:20 39.874052 -104.686765 159 5439ft 18kts
14-May-18 15:21 39.872252 -104.685570 155 5439ft 0kts
14-May-18 15:22 39.871987 -104.685417 155 5439ft 9kts
14-May-18 15:23 39.868350 -104.683835 180 5439ft 15kts
14-May-18 15:24 39.864837 -104.683881 175 5439ft 2kts
14-May-18 15:25 39.861502 -104.683673 129 5439ft 7kts
14-May-18 15:26 39.861402 -104.679013 89 5439ft 17kts
14-May-18 15:27 39.862578 -104.676324 24 5439ft 0kts
14-May-18 15:28 39.862578 -104.676324 24 5439ft 0kts

Navigation Log

Ident Type
1. KSFO Airport
2. JSICA Fix
3. MLF Navaid
4. HVE Navaid
5. KDEN Airport